sensor_id;sensor_type;location;lat;lon;timestamp;temperature;humidity
48515;DHT22;34309;47.260;2.796;2023-04-25T00:01:31;20.90;25.00
48515;DHT22;34309;47.260;2.796;2023-04-25T00:04:07;20.90;25.00
48515;DHT22;34309;47.260;2.796;2023-04-25T00:06:43;20.80;24.90
48515;DHT22;34309;47.260;2.796;2023-04-25T00:09:16;20.80;24.80
48515;DHT22;34309;47.260;2.796;2023-04-25T00:11:50;20.80;25.10
48515;DHT22;34309;47.260;2.796;2023-04-25T00:14:24;20.80;24.80
48515;DHT22;34309;47.260;2.796;2023-04-25T00:16:57;20.80;24.90
48515;DHT22;34309;47.260;2.796;2023-04-25T00:19:31;20.80;24.90
48515;DHT22;34309;47.260;2.796;2023-04-25T00:22:08;20.80;25.10
48515;DHT22;34309;47.260;2.796;2023-04-25T00:24:42;20.80;25.00
48515;DHT22;34309;47.260;2.796;2023-04-25T00:27:15;20.80;25.00
48515;DHT22;34309;47.260;2.796;2023-04-25T00:29:49;20.80;25.20
48515;DHT22;34309;47.260;2.796;2023-04-25T00:32:23;20.80;25.20
48515;DHT22;34309;47.260;2.796;2023-04-25T00:34:57;20.80;25.00
48515;DHT22;34309;47.260;2.796;2023-04-25T00:37:32;20.80;25.10
48515;DHT22;34309;47.260;2.796;2023-04-25T00:40:07;20.70;25.20
48515;DHT22;34309;47.260;2.796;2023-04-25T00:42:41;20.70;25.00
48515;DHT22;34309;47.260;2.796;2023-04-25T00:45:15;20.70;25.00
48515;DHT22;34309;47.260;2.796;2023-04-25T00:47:50;20.70;25.00
48515;DHT22;34309;47.260;2.796;2023-04-25T00:50:24;20.70;24.60
48515;DHT22;34309;47.260;2.796;2023-04-25T00:53:00;20.70;25.10
48515;DHT22;34309;47.260;2.796;2023-04-25T00:55:35;20.70;25.00
48515;DHT22;34309;47.260;2.796;2023-04-25T00:58:09;20.70;25.00
48515;DHT22;34309;47.260;2.796;2023-04-25T01:00:44;20.70;25.00
48515;DHT22;34309;47.260;2.796;2023-04-25T01:03:19;20.70;25.00
48515;DHT22;34309;47.260;2.796;2023-04-25T01:05:53;20.70;25.10
48515;DHT22;34309;47.260;2.796;2023-04-25T01:08:29;20.80;25.10
48515;DHT22;34309;47.260;2.796;2023-04-25T01:11:02;20.80;25.00
48515;DHT22;34309;47.260;2.796;2023-04-25T01:13:36;20.90;25.00
48515;DHT22;34309;47.260;2.796;2023-04-25T01:16:10;20.90;24.90
48515;DHT22;34309;47.260;2.796;2023-04-25T01:18:45;21.00;24.90
48515;DHT22;34309;47.260;2.796;2023-04-25T01:21:15;21.00;24.90
48515;DHT22;34309;47.260;2.796;2023-04-25T01:23:49;21.10;24.80
48515;DHT22;34309;47.260;2.796;2023-04-25T01:26:24;21.10;24.70
48515;DHT22;34309;47.260;2.796;2023-04-25T01:28:58;21.20;24.60
48515;DHT22;34309;47.260;2.796;2023-04-25T01:31:32;21.20;24.60
48515;DHT22;34309;47.260;2.796;2023-04-25T01:34:06;21.30;24.50
48515;DHT22;34309;47.260;2.796;2023-04-25T01:36:42;21.30;24.60
48515;DHT22;34309;47.260;2.796;2023-04-25T01:39:16;21.30;24.50
48515;DHT22;34309;47.260;2.796;2023-04-25T01:41:50;21.30;24.50
48515;DHT22;34309;47.260;2.796;2023-04-25T01:44:24;21.30;24.40
48515;DHT22;34309;47.260;2.796;2023-04-25T01:46:57;21.40;24.40
48515;DHT22;34309;47.260;2.796;2023-04-25T01:49:31;21.40;24.30
48515;DHT22;34309;47.260;2.796;2023-04-25T01:52:06;21.50;24.40
48515;DHT22;34309;47.260;2.796;2023-04-25T01:54:42;21.50;24.40
48515;DHT22;34309;47.260;2.796;2023-04-25T01:57:16;21.50;24.40
48515;DHT22;34309;47.260;2.796;2023-04-25T01:59:50;21.50;24.40
48515;DHT22;34309;47.260;2.796;2023-04-25T02:02:25;21.50;24.30
48515;DHT22;34309;47.260;2.796;2023-04-25T02:04:59;21.50;24.40
48515;DHT22;34309;47.260;2.796;2023-04-25T02:07:34;21.50;24.30
48515;DHT22;34309;47.260;2.796;2023-04-25T02:10:09;21.50;24.30
48515;DHT22;34309;47.260;2.796;2023-04-25T02:12:43;21.50;24.50
48515;DHT22;34309;47.260;2.796;2023-04-25T02:15:17;21.50;24.40
48515;DHT22;34309;47.260;2.796;2023-04-25T02:17:46;21.50;24.30
48515;DHT22;34309;47.260;2.796;2023-04-25T02:20:21;21.60;24.50
48515;DHT22;34309;47.260;2.796;2023-04-25T02:22:56;21.50;24.30
48515;DHT22;34309;47.260;2.796;2023-04-25T02:25:30;21.50;24.40
48515;DHT22;34309;47.260;2.796;2023-04-25T02:28:04;21.50;24.50
48515;DHT22;34309;47.260;2.796;2023-04-25T02:30:37;21.50;24.40
48515;DHT22;34309;47.260;2.796;2023-04-25T02:33:11;21.50;24.40
48515;DHT22;34309;47.260;2.796;2023-04-25T02:35:46;21.50;24.40
48515;DHT22;34309;47.260;2.796;2023-04-25T02:38:21;21.50;24.40
48515;DHT22;34309;47.260;2.796;2023-04-25T02:40:55;21.50;24.30
48515;DHT22;34309;47.260;2.796;2023-04-25T02:43:29;21.50;24.90
48515;DHT22;34309;47.260;2.796;2023-04-25T02:46:03;21.40;24.50
48515;DHT22;34309;47.260;2.796;2023-04-25T02:48:37;21.40;24.40
48515;DHT22;34309;47.260;2.796;2023-04-25T02:51:11;21.40;24.50
48515;DHT22;34309;47.260;2.796;2023-04-25T02:53:46;21.40;24.40
48515;DHT22;34309;47.260;2.796;2023-04-25T02:56:20;21.40;24.50
48515;DHT22;34309;47.260;2.796;2023-04-25T02:58:54;21.40;24.40
48515;DHT22;34309;47.260;2.796;2023-04-25T03:01:28;21.40;24.50
48515;DHT22;34309;47.260;2.796;2023-04-25T03:04:01;21.40;24.60
48515;DHT22;34309;47.260;2.796;2023-04-25T03:06:35;21.30;24.40
48515;DHT22;34309;47.260;2.796;2023-04-25T03:09:11;21.30;24.40
48515;DHT22;34309;47.260;2.796;2023-04-25T03:11:44;21.30;24.50
48515;DHT22;34309;47.260;2.796;2023-04-25T03:14:18;21.30;24.40
48515;DHT22;34309;47.260;2.796;2023-04-25T03:16:51;21.30;24.50
48515;DHT22;34309;47.260;2.796;2023-04-25T03:19:20;21.30;24.50
48515;DHT22;34309;47.260;2.796;2023-04-25T03:21:53;21.30;24.50
48515;DHT22;34309;47.260;2.796;2023-04-25T03:24:29;21.30;24.70
48515;DHT22;34309;47.260;2.796;2023-04-25T03:27:02;21.30;24.50
48515;DHT22;34309;47.260;2.796;2023-04-25T03:29:36;21.20;24.60
48515;DHT22;34309;47.260;2.796;2023-04-25T03:32:10;21.20;24.50
48515;DHT22;34309;47.260;2.796;2023-04-25T03:34:43;21.20;24.50
48515;DHT22;34309;47.260;2.796;2023-04-25T03:37:17;21.20;24.70
48515;DHT22;34309;47.260;2.796;2023-04-25T03:39:52;21.20;24.50
48515;DHT22;34309;47.260;2.796;2023-04-25T03:42:26;21.10;24.50
48515;DHT22;34309;47.260;2.796;2023-04-25T03:45:00;21.10;24.60
48515;DHT22;34309;47.260;2.796;2023-04-25T03:47:34;21.10;24.50
48515;DHT22;34309;47.260;2.796;2023-04-25T03:50:08;21.10;24.70
48515;DHT22;34309;47.260;2.796;2023-04-25T03:52:43;21.10;24.70
48515;DHT22;34309;47.260;2.796;2023-04-25T03:55:18;21.00;24.70
48515;DHT22;34309;47.260;2.796;2023-04-25T03:57:52;21.00;25.20
48515;DHT22;34309;47.260;2.796;2023-04-25T04:00:26;21.00;24.70
48515;DHT22;34309;47.260;2.796;2023-04-25T04:03:00;21.00;24.80
48515;DHT22;34309;47.260;2.796;2023-04-25T04:05:33;21.00;24.70
48515;DHT22;34309;47.260;2.796;2023-04-25T04:08:07;20.90;24.70
48515;DHT22;34309;47.260;2.796;2023-04-25T04:10:42;20.90;24.80
48515;DHT22;34309;47.260;2.796;2023-04-25T04:13:16;20.90;24.80
48515;DHT22;34309;47.260;2.796;2023-04-25T04:15:49;20.90;24.80
48515;DHT22;34309;47.260;2.796;2023-04-25T04:18:23;20.90;24.80
48515;DHT22;34309;47.260;2.796;2023-04-25T04:20:57;20.90;24.90
48515;DHT22;34309;47.260;2.796;2023-04-25T04:23:31;20.90;24.90
48515;DHT22;34309;47.260;2.796;2023-04-25T04:26:07;20.80;24.90
48515;DHT22;34309;47.260;2.796;2023-04-25T04:28:41;20.80;24.80
48515;DHT22;34309;47.260;2.796;2023-04-25T04:31:15;20.80;24.90
48515;DHT22;34309;47.260;2.796;2023-04-25T04:33:51;20.80;24.90
48515;DHT22;34309;47.260;2.796;2023-04-25T04:36:25;20.80;24.70
48515;DHT22;34309;47.260;2.796;2023-04-25T04:38:59;20.80;24.90
48515;DHT22;34309;47.260;2.796;2023-04-25T04:41:34;20.80;24.90
48515;DHT22;34309;47.260;2.796;2023-04-25T04:44:08;20.80;24.90
48515;DHT22;34309;47.260;2.796;2023-04-25T04:46:42;20.80;24.80
48515;DHT22;34309;47.260;2.796;2023-04-25T04:49:16;20.80;24.80
48515;DHT22;34309;47.260;2.796;2023-04-25T04:51:50;20.80;24.80
48515;DHT22;34309;47.260;2.796;2023-04-25T04:54:24;20.80;24.80
48515;DHT22;34309;47.260;2.796;2023-04-25T04:56:59;20.70;24.80
48515;DHT22;34309;47.260;2.796;2023-04-25T04:59:33;20.70;24.80
48515;DHT22;34309;47.260;2.796;2023-04-25T05:02:07;20.70;24.80
48515;DHT22;34309;47.260;2.796;2023-04-25T05:04:41;20.70;25.00
48515;DHT22;34309;47.260;2.796;2023-04-25T05:07:14;20.70;24.90
48515;DHT22;34309;47.260;2.796;2023-04-25T05:09:48;20.80;24.80
48515;DHT22;34309;47.260;2.796;2023-04-25T05:12:24;20.80;24.70
48515;DHT22;34309;47.260;2.796;2023-04-25T05:14:58;20.80;24.70
48515;DHT22;34309;47.260;2.796;2023-04-25T05:17:32;20.90;24.60
48515;DHT22;34309;47.260;2.796;2023-04-25T05:20:01;20.90;24.60
48515;DHT22;34309;47.260;2.796;2023-04-25T05:22:35;21.00;24.50
48515;DHT22;34309;47.260;2.796;2023-04-25T05:25:09;21.00;24.50
48515;DHT22;34309;47.260;2.796;2023-04-25T05:27:45;21.10;24.50
48515;DHT22;34309;47.260;2.796;2023-04-25T05:30:19;21.10;24.50
48515;DHT22;34309;47.260;2.796;2023-04-25T05:32:52;21.20;24.50
48515;DHT22;34309;47.260;2.796;2023-04-25T05:35:27;21.20;24.50
48515;DHT22;34309;47.260;2.796;2023-04-25T05:38:00;21.30;24.60
48515;DHT22;34309;47.260;2.796;2023-04-25T05:40:34;21.30;24.50
48515;DHT22;34309;47.260;2.796;2023-04-25T05:43:10;21.30;24.30
48515;DHT22;34309;47.260;2.796;2023-04-25T05:45:44;21.30;24.30
48515;DHT22;34309;47.260;2.796;2023-04-25T05:48:17;21.30;24.30
48515;DHT22;34309;47.260;2.796;2023-04-25T05:50:51;21.40;24.40
48515;DHT22;34309;47.260;2.796;2023-04-25T05:53:25;21.30;24.20
48515;DHT22;34309;47.260;2.796;2023-04-25T05:55:59;21.40;24.40
48515;DHT22;34309;47.260;2.796;2023-04-25T05:58:29;21.40;24.30
48515;DHT22;34309;47.260;2.796;2023-04-25T06:01:03;21.40;24.40
48515;DHT22;34309;47.260;2.796;2023-04-25T06:03:37;21.40;24.30
48515;DHT22;34309;47.260;2.796;2023-04-25T06:06:11;21.40;24.30
48515;DHT22;34309;47.260;2.796;2023-04-25T06:08:45;21.40;24.30
48515;DHT22;34309;47.260;2.796;2023-04-25T06:11:19;21.50;24.40
48515;DHT22;34309;47.260;2.796;2023-04-25T06:13:54;21.60;24.30
48515;DHT22;34309;47.260;2.796;2023-04-25T06:16:28;21.60;24.40
48515;DHT22;34309;47.260;2.796;2023-04-25T06:19:02;21.80;24.30
48515;DHT22;34309;47.260;2.796;2023-04-25T06:21:36;21.90;24.40
48515;DHT22;34309;47.260;2.796;2023-04-25T06:24:10;21.90;24.20
48515;DHT22;34309;47.260;2.796;2023-04-25T06:26:44;22.00;24.10
48515;DHT22;34309;47.260;2.796;2023-04-25T06:29:21;22.00;24.10
48515;DHT22;34309;47.260;2.796;2023-04-25T06:31:54;22.10;24.10
48515;DHT22;34309;47.260;2.796;2023-04-25T06:34:29;22.10;24.20
48515;DHT22;34309;47.260;2.796;2023-04-25T06:37:03;22.20;24.00
48515;DHT22;34309;47.260;2.796;2023-04-25T06:39:37;22.20;24.10
48515;DHT22;34309;47.260;2.796;2023-04-25T06:42:10;22.20;24.00
48515;DHT22;34309;47.260;2.796;2023-04-25T06:44:45;22.20;23.90
48515;DHT22;34309;47.260;2.796;2023-04-25T06:47:19;22.30;23.90
48515;DHT22;34309;47.260;2.796;2023-04-25T06:49:53;22.30;23.90
48515;DHT22;34309;47.260;2.796;2023-04-25T06:52:27;22.30;23.90
48515;DHT22;34309;47.260;2.796;2023-04-25T06:55:01;22.30;23.90
48515;DHT22;34309;47.260;2.796;2023-04-25T06:57:35;22.30;23.80
48515;DHT22;34309;47.260;2.796;2023-04-25T07:00:11;22.30;23.80
48515;DHT22;34309;47.260;2.796;2023-04-25T07:02:45;22.30;23.80
48515;DHT22;34309;47.260;2.796;2023-04-25T07:05:19;22.30;23.80
48515;DHT22;34309;47.260;2.796;2023-04-25T07:07:53;22.30;23.80
48515;DHT22;34309;47.260;2.796;2023-04-25T07:10:27;22.30;23.60
48515;DHT22;34309;47.260;2.796;2023-04-25T07:13:00;22.30;23.70
48515;DHT22;34309;47.260;2.796;2023-04-25T07:15:46;22.30;23.90
48515;DHT22;34309;47.260;2.796;2023-04-25T07:18:20;22.30;23.90
48515;DHT22;34309;47.260;2.796;2023-04-25T07:20:54;22.30;23.90
48515;DHT22;34309;47.260;2.796;2023-04-25T07:23:28;22.20;23.60
48515;DHT22;34309;47.260;2.796;2023-04-25T07:26:02;22.20;23.80
48515;DHT22;34309;47.260;2.796;2023-04-25T07:28:36;22.20;23.80
48515;DHT22;34309;47.260;2.796;2023-04-25T07:31:11;22.20;23.80
48515;DHT22;34309;47.260;2.796;2023-04-25T07:33:45;22.20;23.90
48515;DHT22;34309;47.260;2.796;2023-04-25T07:36:18;22.20;23.70
48515;DHT22;34309;47.260;2.796;2023-04-25T07:38:53;22.10;23.70
48515;DHT22;34309;47.260;2.796;2023-04-25T07:41:27;22.10;23.80
48515;DHT22;34309;47.260;2.796;2023-04-25T07:44:01;22.10;23.90
48515;DHT22;34309;47.260;2.796;2023-04-25T07:46:36;22.10;23.90
48515;DHT22;34309;47.260;2.796;2023-04-25T07:49:10;22.10;23.70
48515;DHT22;34309;47.260;2.796;2023-04-25T07:51:44;22.10;23.80
48515;DHT22;34309;47.260;2.796;2023-04-25T07:54:19;22.10;23.80
48515;DHT22;34309;47.260;2.796;2023-04-25T07:56:53;22.00;23.60
48515;DHT22;34309;47.260;2.796;2023-04-25T07:59:22;22.00;23.90
48515;DHT22;34309;47.260;2.796;2023-04-25T08:01:57;22.00;23.90
48515;DHT22;34309;47.260;2.796;2023-04-25T08:04:31;22.00;23.80
48515;DHT22;34309;47.260;2.796;2023-04-25T08:07:04;22.00;23.90
48515;DHT22;34309;47.260;2.796;2023-04-25T08:09:38;21.90;24.10
48515;DHT22;34309;47.260;2.796;2023-04-25T08:12:12;21.90;23.80
48515;DHT22;34309;47.260;2.796;2023-04-25T08:14:45;21.90;23.90
48515;DHT22;34309;47.260;2.796;2023-04-25T08:17:15;21.90;23.90
48515;DHT22;34309;47.260;2.796;2023-04-25T08:19:50;21.80;23.90
48515;DHT22;34309;47.260;2.796;2023-04-25T08:22:23;21.80;24.10
48515;DHT22;34309;47.260;2.796;2023-04-25T08:24:57;21.80;24.00
48515;DHT22;34309;47.260;2.796;2023-04-25T08:27:31;21.80;23.90
48515;DHT22;34309;47.260;2.796;2023-04-25T08:30:06;21.80;23.90
48515;DHT22;34309;47.260;2.796;2023-04-25T08:32:42;21.80;24.10
48515;DHT22;34309;47.260;2.796;2023-04-25T08:35:16;21.70;24.00
48515;DHT22;34309;47.260;2.796;2023-04-25T08:37:49;21.70;24.30
48515;DHT22;34309;47.260;2.796;2023-04-25T08:40:23;21.70;24.30
48515;DHT22;34309;47.260;2.796;2023-04-25T08:43:03;21.70;24.30
48515;DHT22;34309;47.260;2.796;2023-04-25T08:45:43;21.70;24.40
48515;DHT22;34309;47.260;2.796;2023-04-25T08:48:19;21.70;24.20
48515;DHT22;34309;47.260;2.796;2023-04-25T08:50:54;21.60;24.20
48515;DHT22;34309;47.260;2.796;2023-04-25T08:53:29;21.60;24.20
48515;DHT22;34309;47.260;2.796;2023-04-25T08:56:00;21.60;24.30
48515;DHT22;34309;47.260;2.796;2023-04-25T08:58:35;21.60;24.40
48515;DHT22;34309;47.260;2.796;2023-04-25T09:01:09;21.60;24.50
48515;DHT22;34309;47.260;2.796;2023-04-25T09:03:44;21.60;24.50
48515;DHT22;34309;47.260;2.796;2023-04-25T09:06:19;21.50;24.40
48515;DHT22;34309;47.260;2.796;2023-04-25T09:08:53;21.60;24.50
48515;DHT22;34309;47.260;2.796;2023-04-25T09:11:27;21.50;25.10
48515;DHT22;34309;47.260;2.796;2023-04-25T09:14:14;21.50;24.50
48515;DHT22;34309;47.260;2.796;2023-04-25T09:16:58;21.50;24.60
48515;DHT22;34309;47.260;2.796;2023-04-25T09:19:34;21.50;24.70
48515;DHT22;34309;47.260;2.796;2023-04-25T09:22:09;21.40;24.70
48515;DHT22;34309;47.260;2.796;2023-04-25T09:24:44;21.40;24.60
48515;DHT22;34309;47.260;2.796;2023-04-25T09:27:19;21.40;24.60
48515;DHT22;34309;47.260;2.796;2023-04-25T09:29:58;21.40;24.60
48515;DHT22;34309;47.260;2.796;2023-04-25T09:32:32;21.40;24.60
48515;DHT22;34309;47.260;2.796;2023-04-25T09:35:08;21.40;24.70
48515;DHT22;34309;47.260;2.796;2023-04-25T09:37:41;21.40;24.70
48515;DHT22;34309;47.260;2.796;2023-04-25T09:40:15;21.40;24.70
48515;DHT22;34309;47.260;2.796;2023-04-25T09:42:52;21.40;24.70
48515;DHT22;34309;47.260;2.796;2023-04-25T09:45:26;21.30;24.70
48515;DHT22;34309;47.260;2.796;2023-04-25T09:48:03;21.30;24.80
48515;DHT22;34309;47.260;2.796;2023-04-25T09:50:40;21.30;24.80
48515;DHT22;34309;47.260;2.796;2023-04-25T09:53:13;21.30;24.80
48515;DHT22;34309;47.260;2.796;2023-04-25T09:55:47;21.30;24.80
48515;DHT22;34309;47.260;2.796;2023-04-25T09:58:22;21.30;24.90
48515;DHT22;34309;47.260;2.796;2023-04-25T10:01:00;21.30;24.80
48515;DHT22;34309;47.260;2.796;2023-04-25T10:03:35;21.30;24.80
48515;DHT22;34309;47.260;2.796;2023-04-25T10:06:13;21.30;24.80
48515;DHT22;34309;47.260;2.796;2023-04-25T10:08:50;21.30;24.80
48515;DHT22;34309;47.260;2.796;2023-04-25T10:11:27;21.30;24.80
48515;DHT22;34309;47.260;2.796;2023-04-25T10:14:02;21.30;24.80
48515;DHT22;34309;47.260;2.796;2023-04-25T10:16:36;21.30;25.00
48515;DHT22;34309;47.260;2.796;2023-04-25T10:19:11;21.20;24.70
48515;DHT22;34309;47.260;2.796;2023-04-25T10:21:50;21.20;24.80
48515;DHT22;34309;47.260;2.796;2023-04-25T10:24:25;21.20;24.70
48515;DHT22;34309;47.260;2.796;2023-04-25T10:26:59;21.20;24.70
48515;DHT22;34309;47.260;2.796;2023-04-25T10:29:34;21.20;24.70
48515;DHT22;34309;47.260;2.796;2023-04-25T10:32:04;21.20;24.90
48515;DHT22;34309;47.260;2.796;2023-04-25T10:34:39;21.20;24.80
48515;DHT22;34309;47.260;2.796;2023-04-25T10:37:15;21.20;25.00
48515;DHT22;34309;47.260;2.796;2023-04-25T10:39:48;21.20;24.90
48515;DHT22;34309;47.260;2.796;2023-04-25T10:42:22;21.20;24.90
48515;DHT22;34309;47.260;2.796;2023-04-25T10:45:02;21.20;24.90
48515;DHT22;34309;47.260;2.796;2023-04-25T10:47:44;21.20;24.80
48515;DHT22;34309;47.260;2.796;2023-04-25T10:50:18;21.10;24.80
48515;DHT22;34309;47.260;2.796;2023-04-25T10:52:53;21.10;24.80
48515;DHT22;34309;47.260;2.796;2023-04-25T10:55:50;21.10;24.90
48515;DHT22;34309;47.260;2.796;2023-04-25T10:58:25;21.10;24.80
48515;DHT22;34309;47.260;2.796;2023-04-25T11:00:59;21.10;24.90
48515;DHT22;34309;47.260;2.796;2023-04-25T11:03:39;21.10;24.70
48515;DHT22;34309;47.260;2.796;2023-04-25T11:06:22;21.10;24.90
48515;DHT22;34309;47.260;2.796;2023-04-25T11:09:00;21.10;25.10
48515;DHT22;34309;47.260;2.796;2023-04-25T11:11:37;21.10;24.90
48515;DHT22;34309;47.260;2.796;2023-04-25T11:14:10;21.10;24.80
48515;DHT22;34309;47.260;2.796;2023-04-25T11:16:44;21.00;24.70
48515;DHT22;34309;47.260;2.796;2023-04-25T11:19:19;21.00;24.80
48515;DHT22;34309;47.260;2.796;2023-04-25T11:21:55;21.00;24.90
48515;DHT22;34309;47.260;2.796;2023-04-25T11:24:32;21.00;25.00
48515;DHT22;34309;47.260;2.796;2023-04-25T11:27:06;21.00;24.80
48515;DHT22;34309;47.260;2.796;2023-04-25T11:29:41;21.00;24.80
48515;DHT22;34309;47.260;2.796;2023-04-25T11:32:15;21.00;24.80
48515;DHT22;34309;47.260;2.796;2023-04-25T11:34:49;21.00;24.70
48515;DHT22;34309;47.260;2.796;2023-04-25T11:37:23;21.00;24.90
48515;DHT22;34309;47.260;2.796;2023-04-25T11:39:59;21.00;24.60
48515;DHT22;34309;47.260;2.796;2023-04-25T11:42:33;21.00;24.70
48515;DHT22;34309;47.260;2.796;2023-04-25T11:45:07;20.90;24.60
48515;DHT22;34309;47.260;2.796;2023-04-25T11:47:41;21.00;24.70
48515;DHT22;34309;47.260;2.796;2023-04-25T11:50:15;20.90;24.60
48515;DHT22;34309;47.260;2.796;2023-04-25T11:52:49;20.90;24.50
48515;DHT22;34309;47.260;2.796;2023-04-25T11:55:24;20.90;24.50
48515;DHT22;34309;47.260;2.796;2023-04-25T11:58:00;20.90;24.60
48515;DHT22;34309;47.260;2.796;2023-04-25T12:00:34;20.90;24.60
48515;DHT22;34309;47.260;2.796;2023-04-25T12:03:09;20.90;24.60
48515;DHT22;34309;47.260;2.796;2023-04-25T12:05:44;20.90;24.60
48515;DHT22;34309;47.260;2.796;2023-04-25T12:08:18;20.90;24.50
48515;DHT22;34309;47.260;2.796;2023-04-25T12:10:54;20.90;24.60
48515;DHT22;34309;47.260;2.796;2023-04-25T12:13:31;20.90;24.50
48515;DHT22;34309;47.260;2.796;2023-04-25T12:16:06;20.90;24.50
48515;DHT22;34309;47.260;2.796;2023-04-25T12:18:40;20.90;24.50
48515;DHT22;34309;47.260;2.796;2023-04-25T12:21:13;20.90;24.50
48515;DHT22;34309;47.260;2.796;2023-04-25T12:23:47;20.90;24.50
48515;DHT22;34309;47.260;2.796;2023-04-25T12:26:22;20.90;24.50
48515;DHT22;34309;47.260;2.796;2023-04-25T12:28:57;20.90;24.60
48515;DHT22;34309;47.260;2.796;2023-04-25T12:31:32;20.90;24.50
48515;DHT22;34309;47.260;2.796;2023-04-25T12:34:06;20.90;24.50
48515;DHT22;34309;47.260;2.796;2023-04-25T12:36:40;20.80;24.40
48515;DHT22;34309;47.260;2.796;2023-04-25T12:39:17;20.80;24.40
48515;DHT22;34309;47.260;2.796;2023-04-25T12:41:54;20.80;24.40
48515;DHT22;34309;47.260;2.796;2023-04-25T12:44:28;20.80;24.40
48515;DHT22;34309;47.260;2.796;2023-04-25T12:47:01;20.90;24.60
48515;DHT22;34309;47.260;2.796;2023-04-25T12:49:35;20.80;24.50
48515;DHT22;34309;47.260;2.796;2023-04-25T12:52:10;20.80;24.40
48515;DHT22;34309;47.260;2.796;2023-04-25T12:54:44;20.80;24.40
48515;DHT22;34309;47.260;2.796;2023-04-25T12:57:19;20.80;24.40
48515;DHT22;34309;47.260;2.796;2023-04-25T12:59:55;20.80;24.40
48515;DHT22;34309;47.260;2.796;2023-04-25T13:02:28;20.80;24.50
48515;DHT22;34309;47.260;2.796;2023-04-25T13:05:02;20.80;24.60
48515;DHT22;34309;47.260;2.796;2023-04-25T13:07:36;20.80;24.40
48515;DHT22;34309;47.260;2.796;2023-04-25T13:10:11;20.80;24.50
48515;DHT22;34309;47.260;2.796;2023-04-25T13:12:46;20.80;24.70
48515;DHT22;34309;47.260;2.796;2023-04-25T13:15:20;20.80;24.80
48515;DHT22;34309;47.260;2.796;2023-04-25T13:17:54;20.80;24.80
48515;DHT22;34309;47.260;2.796;2023-04-25T13:20:28;20.80;24.80
48515;DHT22;34309;47.260;2.796;2023-04-25T13:23:01;20.80;24.70
48515;DHT22;34309;47.260;2.796;2023-04-25T13:25:35;20.80;24.80
48515;DHT22;34309;47.260;2.796;2023-04-25T13:28:11;20.80;25.00
48515;DHT22;34309;47.260;2.796;2023-04-25T13:30:46;20.80;25.20
48515;DHT22;34309;47.260;2.796;2023-04-25T13:33:20;20.80;25.10
48515;DHT22;34309;47.260;2.796;2023-04-25T13:35:54;20.80;25.10
48515;DHT22;34309;47.260;2.796;2023-04-25T13:38:29;20.80;25.20
48515;DHT22;34309;47.260;2.796;2023-04-25T13:41:03;20.80;25.40
48515;DHT22;34309;47.260;2.796;2023-04-25T13:43:40;20.80;25.40
48515;DHT22;34309;47.260;2.796;2023-04-25T13:46:14;20.80;25.40
48515;DHT22;34309;47.260;2.796;2023-04-25T13:48:49;20.80;25.60
48515;DHT22;34309;47.260;2.796;2023-04-25T13:51:22;20.80;25.50
48515;DHT22;34309;47.260;2.796;2023-04-25T13:53:56;20.80;25.50
48515;DHT22;34309;47.260;2.796;2023-04-25T13:56:30;20.80;25.50
48515;DHT22;34309;47.260;2.796;2023-04-25T13:59:05;20.80;25.60
48515;DHT22;34309;47.260;2.796;2023-04-25T14:01:39;20.80;25.80
48515;DHT22;34309;47.260;2.796;2023-04-25T14:04:13;20.80;25.50
48515;DHT22;34309;47.260;2.796;2023-04-25T14:06:47;20.80;25.60
48515;DHT22;34309;47.260;2.796;2023-04-25T14:09:21;20.80;25.80
48515;DHT22;34309;47.260;2.796;2023-04-25T14:11:58;20.80;25.80
48515;DHT22;34309;47.260;2.796;2023-04-25T14:14:34;20.80;25.90
48515;DHT22;34309;47.260;2.796;2023-04-25T14:17:08;20.80;25.80
48515;DHT22;34309;47.260;2.796;2023-04-25T14:19:42;20.80;25.90
48515;DHT22;34309;47.260;2.796;2023-04-25T14:22:18;20.80;25.80
48515;DHT22;34309;47.260;2.796;2023-04-25T14:24:51;20.80;25.80
48515;DHT22;34309;47.260;2.796;2023-04-25T14:27:25;20.80;25.80
48515;DHT22;34309;47.260;2.796;2023-04-25T14:30:01;20.80;25.80
48515;DHT22;34309;47.260;2.796;2023-04-25T14:32:35;20.80;25.80
48515;DHT22;34309;47.260;2.796;2023-04-25T14:35:09;20.80;25.90
48515;DHT22;34309;47.260;2.796;2023-04-25T14:37:43;20.80;25.80
48515;DHT22;34309;47.260;2.796;2023-04-25T14:40:17;20.80;25.80
48515;DHT22;34309;47.260;2.796;2023-04-25T14:42:54;20.80;25.80
48515;DHT22;34309;47.260;2.796;2023-04-25T14:45:30;20.80;25.80
48515;DHT22;34309;47.260;2.796;2023-04-25T14:48:05;20.80;25.80
48515;DHT22;34309;47.260;2.796;2023-04-25T14:50:38;20.80;25.80
48515;DHT22;34309;47.260;2.796;2023-04-25T14:53:12;20.80;25.80
48515;DHT22;34309;47.260;2.796;2023-04-25T14:55:46;20.80;25.90
48515;DHT22;34309;47.260;2.796;2023-04-25T14:58:22;20.80;25.80
48515;DHT22;34309;47.260;2.796;2023-04-25T15:00:57;20.80;25.80
48515;DHT22;34309;47.260;2.796;2023-04-25T15:03:31;20.80;25.80
48515;DHT22;34309;47.260;2.796;2023-04-25T15:06:06;20.80;26.00
48515;DHT22;34309;47.260;2.796;2023-04-25T15:08:40;20.80;25.90
48515;DHT22;34309;47.260;2.796;2023-04-25T15:11:14;20.80;25.80
48515;DHT22;34309;47.260;2.796;2023-04-25T15:13:48;20.80;25.90
48515;DHT22;34309;47.260;2.796;2023-04-25T15:16:23;20.80;25.80
48515;DHT22;34309;47.260;2.796;2023-04-25T15:18:57;20.80;25.90
48515;DHT22;34309;47.260;2.796;2023-04-25T15:21:31;20.80;25.80
48515;DHT22;34309;47.260;2.796;2023-04-25T15:24:05;20.80;25.80
48515;DHT22;34309;47.260;2.796;2023-04-25T15:26:39;20.80;25.80
48515;DHT22;34309;47.260;2.796;2023-04-25T15:29:13;20.80;25.80
48515;DHT22;34309;47.260;2.796;2023-04-25T15:31:49;20.80;25.90
48515;DHT22;34309;47.260;2.796;2023-04-25T15:34:23;20.80;25.90
48515;DHT22;34309;47.260;2.796;2023-04-25T15:36:56;20.80;25.90
48515;DHT22;34309;47.260;2.796;2023-04-25T15:39:31;20.80;26.10
48515;DHT22;34309;47.260;2.796;2023-04-25T15:42:04;20.80;26.20
48515;DHT22;34309;47.260;2.796;2023-04-25T15:44:38;20.80;26.30
48515;DHT22;34309;47.260;2.796;2023-04-25T15:47:13;20.80;26.20
48515;DHT22;34309;47.260;2.796;2023-04-25T15:49:47;20.90;26.50
48515;DHT22;34309;47.260;2.796;2023-04-25T15:52:21;20.90;26.60
48515;DHT22;34309;47.260;2.796;2023-04-25T15:54:55;20.90;26.70
48515;DHT22;34309;47.260;2.796;2023-04-25T15:57:28;20.90;26.70
48515;DHT22;34309;47.260;2.796;2023-04-25T16:00:04;20.90;26.80
48515;DHT22;34309;47.260;2.796;2023-04-25T16:02:44;20.90;26.90
48515;DHT22;34309;47.260;2.796;2023-04-25T16:05:19;20.90;26.80
48515;DHT22;34309;47.260;2.796;2023-04-25T16:07:48;20.90;26.70
48515;DHT22;34309;47.260;2.796;2023-04-25T16:10:25;20.90;26.60
48515;DHT22;34309;47.260;2.796;2023-04-25T16:12:59;20.90;26.70
48515;DHT22;34309;47.260;2.796;2023-04-25T16:15:33;20.90;26.80